createdAt,value
2023-05-24T00:03:19.390Z,24.20
2023-05-24T00:06:28.373Z,23.11
2023-05-24T00:09:35.091Z,23.54
2023-05-24T00:12:41.197Z,24.38
2023-05-24T00:15:50.176Z,24.52
2023-05-24T00:18:56.229Z,24.81
2023-05-24T00:22:08.515Z,25.33
2023-05-24T00:25:14.475Z,25.50
2023-05-24T00:28:21.561Z,26.31
2023-05-24T00:31:27.459Z,26.23
2023-05-24T00:34:34.230Z,26.29
2023-05-24T00:37:45.489Z,25.93
2023-05-24T00:40:52.478Z,26.02
2023-05-24T00:43:59.699Z,26.52
2023-05-24T00:47:13.716Z,26.04
2023-05-24T00:50:21.030Z,26.03
2023-05-24T00:53:31.028Z,26.45
2023-05-24T00:56:37.899Z,26.40
2023-05-24T00:59:46.246Z,26.37
2023-05-24T01:02:52.960Z,26.44
2023-05-24T01:06:01.881Z,26.69
2023-05-24T01:09:28.987Z,25.52
2023-05-24T01:12:54.223Z,26.07
2023-05-24T01:16:11.490Z,26.37
2023-05-24T01:19:54.473Z,25.77
2023-05-24T01:23:34.829Z,25.36
2023-05-24T01:27:08.530Z,24.92
2023-05-24T01:30:32.031Z,24.32
2023-05-24T01:33:52.949Z,24.12
2023-05-24T01:37:14.199Z,24.01
2023-05-24T01:40:36.446Z,24.25
2023-05-24T01:44:13.502Z,24.12
2023-05-24T01:47:40.761Z,24.53
2023-05-24T01:50:55.943Z,24.74
2023-05-24T01:54:09.825Z,25.33
2023-05-24T01:57:17.955Z,24.69
2023-05-24T02:00:29.861Z,24.81
2023-05-24T02:03:38.312Z,25.58
2023-05-24T02:06:45.079Z,25.43
2023-05-24T02:09:51.076Z,25.13
2023-05-24T02:12:59.759Z,25.29
2023-05-24T02:16:11.155Z,25.28
2023-05-24T02:19:18.199Z,24.48
2023-05-24T02:22:24.388Z,24.14
2023-05-24T02:25:32.488Z,24.63
2023-05-24T02:28:38.520Z,24.02
2023-05-24T02:31:51.018Z,24.88
2023-05-24T02:34:59.518Z,24.71
2023-05-24T02:38:07.013Z,25.15
2023-05-24T02:41:18.172Z,24.15
2023-05-24T02:44:25.000Z,24.13
2023-05-24T02:47:33.786Z,24.06
2023-05-24T02:50:54.711Z,23.40
2023-05-24T02:54:17.977Z,22.90
2023-05-24T02:57:39.403Z,23.11
2023-05-24T03:01:00.307Z,22.72
2023-05-24T03:04:25.504Z,23.28
2023-05-24T03:07:48.974Z,22.65
2023-05-24T03:11:12.658Z,23.39
2023-05-24T03:14:35.591Z,23.86
2023-05-24T03:17:57.385Z,23.97
2023-05-24T03:21:21.756Z,23.66
2023-05-24T03:24:42.678Z,24.06
2023-05-24T03:28:09.502Z,23.62
2023-05-24T03:31:30.590Z,23.80
2023-05-24T03:34:51.943Z,24.04
2023-05-24T03:38:04.054Z,24.71
2023-05-24T03:41:23.111Z,24.91
2023-05-24T03:44:31.028Z,24.64
2023-05-24T03:47:38.641Z,24.72
2023-05-24T03:50:45.847Z,24.84
2023-05-24T03:53:54.391Z,24.70
2023-05-24T03:57:02.070Z,23.89
2023-05-24T04:00:13.001Z,23.77
2023-05-24T04:03:41.084Z,23.90
2023-05-24T04:07:02.070Z,23.79
2023-05-24T04:10:13.226Z,23.44
2023-05-24T04:13:19.419Z,22.84
2023-05-24T04:16:30.006Z,21.04
2023-05-24T04:19:36.210Z,19.30
2023-05-24T04:22:43.804Z,18.23
2023-05-24T04:25:54.301Z,17.97
2023-05-24T04:29:08.482Z,16.94
2023-05-24T04:32:15.190Z,15.48
2023-05-24T04:35:25.976Z,13.89
2023-05-24T04:38:36.355Z,11.81
2023-05-24T04:41:46.008Z,9.96
2023-05-24T04:44:52.508Z,9.37
2023-05-24T04:47:59.473Z,8.55
2023-05-24T04:51:06.044Z,8.60
2023-05-24T04:54:13.271Z,8.90
2023-05-24T04:57:22.728Z,9.37
2023-05-24T05:00:30.513Z,9.57
2023-05-24T05:03:51.741Z,8.03
2023-05-24T05:06:58.571Z,6.21
2023-05-24T05:10:29.515Z,5.90
2023-05-24T05:13:59.132Z,5.54
2023-05-24T05:17:05.034Z,5.37
2023-05-24T05:20:12.663Z,5.71
2023-05-24T05:23:19.883Z,4.99
2023-05-24T05:26:27.278Z,4.67
2023-05-24T05:29:35.871Z,4.32
2023-05-24T05:32:43.217Z,4.35
2023-05-24T05:35:49.335Z,4.22
2023-05-24T05:39:12.510Z,3.80
2023-05-24T05:42:33.366Z,3.94
2023-05-24T05:45:42.837Z,3.57
2023-05-24T05:48:48.769Z,3.50
2023-05-24T05:51:56.066Z,3.48
2023-05-24T05:55:02.437Z,3.64
2023-05-24T05:58:09.173Z,4.00
2023-05-24T06:01:19.229Z,4.37
2023-05-24T06:04:40.223Z,5.54
2023-05-24T06:07:47.774Z,6.40
2023-05-24T06:10:53.798Z,6.54
2023-05-24T06:14:00.591Z,6.74
2023-05-24T06:17:09.710Z,6.68
2023-05-24T06:20:17.400Z,6.15
2023-05-24T06:23:23.776Z,6.33
2023-05-24T06:26:30.694Z,6.29
2023-05-24T06:29:36.594Z,7.54
2023-05-24T06:32:45.965Z,7.07
2023-05-24T06:35:52.038Z,12.04
2023-05-24T06:38:59.067Z,11.54
2023-05-24T06:42:05.650Z,8.43
2023-05-24T06:45:16.675Z,8.75
2023-05-24T06:48:43.105Z,9.04
2023-05-24T06:52:04.217Z,8.94
2023-05-24T06:55:11.982Z,11.11
2023-05-24T06:58:18.031Z,12.08
2023-05-24T07:01:25.383Z,10.61
2023-05-24T07:04:34.036Z,11.16
2023-05-24T07:07:41.912Z,10.76
2023-05-24T07:10:48.080Z,10.93
2023-05-24T07:13:54.892Z,11.11
2023-05-24T07:17:01.078Z,10.78
2023-05-24T07:20:14.201Z,11.16
2023-05-24T07:23:20.459Z,12.03
2023-05-24T07:26:27.324Z,11.74
2023-05-24T07:29:35.277Z,12.14
2023-05-24T07:32:43.402Z,12.93
2023-05-24T07:35:54.153Z,13.58
2023-05-24T07:39:20.778Z,14.39
2023-05-24T07:42:26.893Z,14.28
2023-05-24T07:45:34.207Z,14.56
2023-05-24T07:48:40.212Z,14.33
2023-05-24T07:51:49.821Z,13.63
2023-05-24T07:54:56.168Z,14.04
2023-05-24T07:58:02.869Z,14.65
2023-05-24T08:01:09.217Z,13.94
2023-05-24T08:04:28.585Z,11.75
2023-05-24T08:07:37.176Z,10.99
2023-05-24T08:10:43.882Z,11.79
2023-05-24T08:13:50.166Z,15.10
2023-05-24T08:16:56.928Z,16.14
2023-05-24T08:20:17.289Z,13.25
2023-05-24T08:23:32.208Z,11.43
2023-05-24T08:26:38.440Z,10.66
2023-05-24T08:29:45.220Z,11.16
2023-05-24T08:32:51.453Z,10.67
2023-05-24T08:36:04.553Z,10.15
2023-05-24T08:39:24.103Z,9.97
2023-05-24T08:42:34.110Z,9.16
2023-05-24T08:45:42.799Z,9.59
2023-05-24T08:48:55.789Z,9.12
2023-05-24T08:52:08.585Z,9.02
2023-05-24T08:55:33.062Z,9.18
2023-05-24T08:58:42.046Z,9.46
2023-05-24T09:01:57.595Z,9.97
2023-05-24T09:05:17.300Z,9.40
2023-05-24T09:08:25.539Z,9.71
2023-05-24T09:11:39.491Z,11.37
2023-05-24T09:14:51.756Z,13.56
2023-05-24T09:17:57.961Z,11.34
2023-05-24T09:21:04.599Z,10.31
2023-05-24T09:24:14.433Z,10.31
2023-05-24T09:27:25.169Z,10.82
2023-05-24T09:30:31.167Z,10.01
2023-05-24T09:33:44.120Z,10.48
2023-05-24T09:36:51.803Z,9.09
2023-05-24T09:39:59.096Z,9.25
2023-05-24T09:43:13.234Z,9.28
2023-05-24T09:46:28.607Z,9.39
2023-05-24T09:49:42.398Z,9.46
2023-05-24T09:52:49.795Z,9.28
2023-05-24T09:55:58.715Z,8.75
2023-05-24T09:59:14.345Z,9.19
2023-05-24T10:02:22.186Z,8.97
2023-05-24T10:05:30.436Z,9.12
2023-05-24T10:08:39.386Z,9.45
2023-05-24T10:11:47.462Z,9.44
2023-05-24T10:15:06.864Z,9.82
2023-05-24T10:18:15.079Z,10.72
2023-05-24T10:21:24.996Z,11.22
2023-05-24T10:24:42.110Z,11.43
2023-05-24T10:27:51.880Z,11.39
2023-05-24T10:31:22.363Z,12.00
2023-05-24T10:34:31.149Z,11.23
2023-05-24T10:37:39.479Z,11.85
2023-05-24T10:40:46.725Z,12.41
2023-05-24T10:44:08.759Z,13.33
2023-05-24T10:47:35.887Z,13.04
2023-05-24T10:50:46.038Z,12.69
2023-05-24T10:53:53.718Z,11.99
2023-05-24T10:57:15.896Z,12.72
2023-05-24T11:00:35.637Z,12.78
2023-05-24T11:04:12.436Z,13.48
2023-05-24T11:07:21.933Z,14.16
2023-05-24T11:10:36.109Z,13.48
2023-05-24T11:13:44.643Z,14.57
2023-05-24T11:16:54.929Z,15.85
2023-05-24T11:20:06.403Z,16.69
2023-05-24T11:23:21.761Z,16.62
2023-05-24T11:26:29.350Z,16.75
2023-05-24T11:29:38.293Z,16.71
2023-05-24T11:32:44.823Z,15.75
2023-05-24T11:35:58.313Z,15.57
2023-05-24T11:39:07.690Z,15.82
2023-05-24T11:42:15.038Z,16.26
2023-05-24T11:45:22.960Z,16.10
2023-05-24T11:48:33.069Z,15.97
2023-05-24T11:51:41.715Z,14.46
2023-05-24T11:54:48.625Z,14.10
2023-05-24T11:58:02.294Z,13.40
2023-05-24T12:01:36.706Z,12.15
2023-05-24T12:04:42.997Z,10.90
2023-05-24T12:08:12.356Z,11.00
2023-05-24T12:11:18.910Z,10.25
2023-05-24T12:14:31.542Z,10.77
2023-05-24T12:17:37.743Z,10.25
2023-05-24T12:20:45.915Z,9.97
2023-05-24T12:23:55.127Z,9.72
2023-05-24T12:27:07.047Z,10.27
2023-05-24T12:30:20.414Z,10.97
2023-05-24T12:33:27.848Z,11.99
2023-05-24T12:36:34.890Z,11.33
2023-05-24T12:39:45.011Z,11.25
2023-05-24T12:43:01.431Z,10.81
2023-05-24T12:46:46.153Z,11.19
2023-05-24T12:49:55.068Z,11.77
2023-05-24T12:53:08.672Z,12.39
2023-05-24T12:56:20.652Z,12.32
2023-05-24T12:59:28.962Z,12.58
2023-05-24T13:02:36.945Z,13.28
2023-05-24T13:05:45.003Z,12.55
2023-05-24T13:08:51.254Z,13.62
2023-05-24T13:12:07.701Z,13.47
2023-05-24T13:15:28.879Z,13.37
2023-05-24T13:18:37.702Z,13.14
2023-05-24T13:21:44.013Z,12.23
2023-05-24T13:24:50.926Z,12.19
2023-05-24T13:28:00.344Z,12.38
2023-05-24T13:31:08.843Z,12.43
2023-05-24T13:34:18.020Z,14.26
2023-05-24T13:37:31.792Z,14.78
2023-05-24T13:40:40.822Z,14.84
2023-05-24T13:43:51.395Z,15.24
2023-05-24T13:46:57.621Z,14.53
2023-05-24T13:50:08.174Z,15.72
2023-05-24T13:53:17.625Z,16.23
2023-05-24T13:56:26.316Z,14.94
2023-05-24T13:59:34.986Z,14.22
2023-05-24T14:02:43.613Z,13.51
2023-05-24T14:05:49.697Z,14.84
2023-05-24T14:08:57.148Z,15.96
2023-05-24T14:12:09.721Z,13.62
2023-05-24T14:15:24.452Z,12.37
2023-05-24T14:18:30.657Z,12.81
2023-05-24T14:21:37.758Z,12.60
2023-05-24T14:24:45.478Z,12.10
2023-05-24T14:27:52.333Z,12.80
2023-05-24T14:31:03.978Z,12.59
2023-05-24T14:34:11.983Z,12.96
2023-05-24T14:37:20.611Z,12.87
2023-05-24T14:40:27.611Z,12.40
2023-05-24T14:43:33.624Z,12.01
2023-05-24T14:46:44.380Z,11.34
2023-05-24T14:49:50.571Z,11.42
2023-05-24T14:52:57.495Z,12.21
2023-05-24T14:56:05.494Z,12.17
2023-05-24T14:59:17.710Z,11.38
2023-05-24T15:02:26.484Z,18.26
2023-05-24T15:05:37.296Z,14.12
2023-05-24T15:08:43.588Z,16.76
2023-05-24T15:11:51.662Z,14.28
2023-05-24T15:14:58.286Z,12.91
2023-05-24T15:18:08.464Z,12.95
2023-05-24T15:21:14.655Z,13.51
2023-05-24T15:24:22.032Z,14.40
2023-05-24T15:27:27.998Z,14.60
2023-05-24T15:30:34.854Z,14.76
2023-05-24T15:33:43.441Z,13.90
2023-05-24T15:36:50.341Z,12.99
2023-05-24T15:39:58.717Z,13.93
2023-05-24T15:43:09.149Z,13.66
2023-05-24T15:46:15.139Z,11.84
2023-05-24T15:49:26.257Z,12.21
2023-05-24T15:52:32.147Z,12.19
2023-05-24T15:55:39.423Z,12.29
2023-05-24T15:58:54.126Z,11.90
2023-05-24T16:06:56.290Z,12.04
2023-05-24T16:10:03.257Z,10.96
2023-05-24T16:13:13.008Z,10.79
2023-05-24T16:16:25.105Z,10.83
2023-05-24T16:19:31.298Z,12.53
2023-05-24T16:22:40.847Z,13.64
2023-05-24T16:25:49.637Z,12.87
2023-05-24T16:28:56.546Z,20.94
2023-05-24T16:32:08.323Z,11.61
2023-05-24T16:35:15.457Z,10.25
2023-05-24T16:38:29.092Z,10.39
2023-05-24T16:41:37.950Z,10.47
2023-05-24T16:44:44.023Z,9.94
2023-05-24T16:47:51.373Z,10.39
2023-05-24T16:50:58.150Z,10.54
2023-05-24T16:54:09.542Z,10.14
2023-05-24T16:57:15.692Z,10.35
2023-05-24T17:00:25.082Z,11.08
2023-05-24T17:03:32.477Z,10.55
2023-05-24T17:06:39.512Z,11.43
2023-05-24T17:09:50.497Z,10.62
2023-05-24T17:12:57.462Z,10.13
2023-05-24T17:16:03.757Z,9.76
2023-05-24T17:19:15.074Z,10.17
2023-05-24T17:22:21.760Z,10.45
2023-05-24T17:25:39.836Z,10.98
2023-05-24T17:28:53.557Z,10.00
2023-05-24T17:32:03.253Z,9.99
2023-05-24T17:35:10.146Z,11.08
2023-05-24T17:38:17.041Z,10.61
2023-05-24T17:41:26.915Z,10.36
2023-05-24T17:44:34.453Z,10.27
2023-05-24T17:47:40.783Z,10.78
2023-05-24T17:50:48.403Z,10.51
2023-05-24T17:53:54.507Z,10.90
2023-05-24T17:57:04.669Z,11.83
2023-05-24T18:00:12.863Z,12.11
2023-05-24T18:03:26.578Z,11.65
2023-05-24T18:06:33.832Z,12.05
2023-05-24T18:09:40.629Z,10.78
2023-05-24T18:12:49.382Z,10.55
2023-05-24T18:15:57.226Z,15.27
2023-05-24T18:19:07.647Z,33.70
2023-05-24T18:22:21.549Z,27.75
2023-05-24T18:25:34.016Z,33.09
2023-05-24T18:28:45.190Z,12.48
2023-05-24T18:31:52.087Z,11.27
2023-05-24T18:35:00.434Z,10.86
2023-05-24T18:38:23.224Z,10.79
2023-05-24T18:41:33.166Z,12.52
2023-05-24T18:44:41.777Z,12.34
2023-05-24T18:47:48.664Z,13.50
2023-05-24T18:50:55.103Z,11.48
2023-05-24T18:54:02.125Z,10.86
2023-05-24T18:57:27.830Z,10.57
2023-05-24T19:00:42.557Z,11.08
2023-05-24T19:03:50.735Z,10.53
2023-05-24T19:06:57.857Z,11.02
2023-05-24T19:10:10.391Z,62.41
2023-05-24T19:13:17.977Z,14.98
2023-05-24T19:16:29.431Z,11.41
2023-05-24T19:19:39.572Z,10.68
2023-05-24T19:22:45.740Z,10.78
2023-05-24T19:26:10.878Z,11.37
2023-05-24T19:29:37.693Z,11.36
2023-05-24T19:32:47.707Z,11.92
2023-05-24T19:35:53.700Z,12.29
2023-05-24T19:39:00.652Z,11.48
2023-05-24T19:42:07.211Z,11.77
2023-05-24T19:45:15.491Z,12.12
2023-05-24T19:48:26.583Z,11.51
2023-05-24T19:51:33.505Z,11.51
2023-05-24T19:54:39.791Z,12.10
2023-05-24T19:57:46.850Z,13.19
2023-05-24T20:00:53.521Z,13.12
2023-05-24T20:04:09.934Z,12.71
2023-05-24T20:07:25.725Z,12.82
2023-05-24T20:10:36.038Z,12.14
2023-05-24T20:13:42.516Z,11.79
2023-05-24T20:16:49.362Z,11.17
2023-05-24T20:19:58.048Z,11.22
2023-05-24T20:23:05.236Z,11.66
2023-05-24T20:26:11.332Z,12.29
2023-05-24T20:29:18.309Z,12.51
2023-05-24T20:32:24.585Z,14.27
2023-05-24T20:35:40.922Z,16.24
2023-05-24T20:38:58.791Z,15.82
2023-05-24T20:42:05.678Z,16.43
2023-05-24T20:45:13.650Z,19.81
2023-05-24T20:48:20.565Z,20.29
2023-05-24T20:51:36.840Z,18.55
2023-05-24T20:54:43.899Z,24.50
2023-05-24T20:57:50.412Z,22.86
2023-05-24T21:00:57.480Z,20.25
2023-05-24T21:04:03.983Z,21.91
2023-05-24T21:07:13.618Z,27.18
2023-05-24T21:10:21.829Z,25.78
2023-05-24T21:13:30.614Z,30.78
2023-05-24T21:16:36.837Z,31.24
2023-05-24T21:19:44.258Z,31.78
2023-05-24T21:22:59.509Z,33.27
2023-05-24T21:26:06.536Z,28.88
2023-05-24T21:29:14.985Z,24.00
2023-05-24T21:32:34.947Z,20.00
2023-05-24T21:35:41.526Z,16.78
2023-05-24T21:38:51.502Z,16.60
2023-05-24T21:41:58.151Z,15.43
2023-05-24T21:45:04.970Z,15.51
2023-05-24T21:48:11.934Z,15.00
2023-05-24T21:51:18.777Z,14.60
2023-05-24T21:54:29.488Z,14.26
2023-05-24T21:57:36.291Z,13.63
2023-05-24T22:00:42.284Z,12.77
2023-05-24T22:03:49.163Z,12.16
2023-05-24T22:06:56.079Z,12.22
2023-05-24T22:10:13.562Z,11.04
2023-05-24T22:13:19.723Z,11.00
2023-05-24T22:16:33.013Z,11.03
2023-05-24T22:19:41.575Z,10.52
2023-05-24T22:22:53.853Z,10.87
2023-05-24T22:26:08.953Z,11.52
2023-05-24T22:29:16.664Z,11.53
2023-05-24T22:32:25.912Z,11.50
2023-05-24T22:35:33.329Z,12.25
2023-05-24T22:38:39.313Z,11.60
2023-05-24T22:41:48.700Z,11.67
2023-05-24T22:44:54.737Z,12.35
2023-05-24T22:48:03.625Z,12.89
2023-05-24T22:51:09.690Z,12.92
2023-05-24T22:54:17.024Z,13.15
2023-05-24T22:57:29.253Z,12.71
2023-05-24T23:00:38.787Z,13.18
2023-05-24T23:03:44.712Z,13.34
2023-05-24T23:06:53.447Z,14.25
2023-05-24T23:10:12.946Z,14.27
2023-05-24T23:13:24.933Z,13.59
2023-05-24T23:16:40.352Z,13.30
2023-05-24T23:19:56.733Z,12.98
2023-05-24T23:23:03.714Z,12.61
2023-05-24T23:26:18.091Z,12.75
2023-05-24T23:29:32.895Z,12.58
2023-05-24T23:32:39.745Z,13.43
2023-05-24T23:35:45.918Z,13.65
2023-05-24T23:38:52.922Z,13.80
2023-05-24T23:41:58.924Z,14.34
2023-05-24T23:45:15.665Z,13.85
2023-05-24T23:48:23.551Z,13.72
2023-05-24T23:51:30.519Z,13.98
2023-05-24T23:54:36.495Z,14.21
2023-05-24T23:57:43.315Z,13.10
